Flight Track Log - Related Links

Times and Time Zones

All times are in EDT time to prevent confusion due to time zone crossing. See the AFL150 flight status page for this flight to view local times or setup timezone preferences in your user account.

Time Position Orientation Groundspeed Altitude Reporting Facility
EDT Latitude Longitude Course Direction KTS MPH feet Rate Location/Type
Tue 06:32:00 AM 56.1098 36.9198 307° West  Level Estimated
Tue 06:33:00 AM 56.1649 36.7240 297° West  Level FlightAware Approximate
Tue 06:34:00 AM 56.2197 36.5275 297° West  Level FlightAware Approximate
Tue 06:35:00 AM 56.2742 36.3305 297° West  Level FlightAware Approximate
Tue 06:36:00 AM 56.3283 36.1330 296° West  Level FlightAware Approximate
Tue 06:37:00 AM 56.3821 35.9348 296° West  Level FlightAware Approximate
Tue 06:38:00 AM 56.4356 35.7362 296° West  Level FlightAware Approximate
Tue 06:39:00 AM 56.4888 35.5369 296° West  Level FlightAware Approximate
Tue 06:40:00 AM 56.5417 35.3371 296° West  Level FlightAware Approximate
Tue 06:41:00 AM 56.5943 35.1368 296° West  Level FlightAware Approximate
Tue 06:42:00 AM 56.6465 34.9359 295° West  Level FlightAware Approximate
Tue 06:43:00 AM 56.6984 34.7344 295° West  Level FlightAware Approximate
Tue 06:44:00 AM 56.7500 34.5324 295° West  Level FlightAware Approximate
Tue 06:45:00 AM 56.8012 34.3298 295° West  Level FlightAware Approximate
Tue 06:46:00 AM 56.8521 34.1267 295° West  Level FlightAware Approximate
Tue 06:47:00 AM 56.9027 33.9230 295° West  Level FlightAware Approximate
Tue 06:48:00 AM 56.9515 33.7164 293° West  Level FlightAware Approximate
Tue 06:49:00 AM 56.9989 33.5097 293° West  Level FlightAware Approximate
Tue 06:50:00 AM 57.0460 33.3025 293° West  Level FlightAware Approximate
Tue 06:51:00 AM 57.0928 33.0947 293° West  Level FlightAware Approximate
Tue 06:52:00 AM 57.1393 32.8864 292° West  Level FlightAware Approximate
Tue 06:53:00 AM 57.1853 32.6776 292° West  Level FlightAware Approximate
Tue 06:54:00 AM 57.2311 32.4682 292° West  Level FlightAware Approximate
Tue 06:55:00 AM 57.2765 32.2584 292° West  Level FlightAware Approximate
Tue 06:56:00 AM 57.3215 32.0480 292° West  Level FlightAware Approximate
Tue 06:57:00 AM 57.3662 31.8371 292° West  Level FlightAware Approximate
Tue 06:58:00 AM 57.4105 31.6257 291° West  Level FlightAware Approximate
Tue 06:58:36 AM 56.4937 31.8826 278° West 457 526 34,000  Level FlightAware ADS-B
Tue 06:59:37 AM 56.5142 31.6138 278° West 456 525 34,000  Level FlightAware ADS-B
Tue 07:00:37 AM 56.5310 31.3862 277° West 456 525 34,000  Level FlightAware ADS-B
Tue 07:01:39 AM 56.5470 31.1650 277° West 456 525 34,000  Level FlightAware ADS-B
Tue 07:02:43 AM 56.5649 30.9187 278° West 455 524 34,000  Level FlightAware ADS-B
Tue 07:03:49 AM 56.5831 30.6717 277° West 456 525 34,000  Level FlightAware ADS-B
Tue 07:04:50 AM 56.5989 30.4493 277° West 456 525 34,000  Level FlightAware ADS-B
Tue 07:05:51 AM 56.6148 30.2180 277° West 458 527 34,000  Level FlightAware ADS-B
Tue 07:06:51 AM 56.6307 29.9848 277° West 459 528 34,000  Level FlightAware ADS-B
Tue 07:07:53 AM 56.6453 29.7619 277° West 461 531 34,000  Level FlightAware ADS-B
Tue 07:08:54 AM 56.6610 29.5168 277° West 461 531 34,000  Level FlightAware ADS-B
Tue 07:09:54 AM 56.6762 29.2701 276° West 462 532 34,000  Level FlightAware ADS-B
Tue 07:10:55 AM 56.6895 29.0486 276° West 465 535 34,000  Level FlightAware ADS-B
Tue 07:11:57 AM 56.7043 28.7945 276° West 466 536 34,000  Level FlightAware ADS-B
Tue 07:12:58 AM 56.7164 28.5783 276° West 468 539 34,000  Level FlightAware ADS-B
Tue 07:14:02 AM 56.7305 28.3171 276° West 468 539 34,000  Level FlightAware ADS-B
Tue 07:15:08 AM 56.7436 28.0631 275° West 472 543 34,000  Level FlightAware ADS-B
Tue 07:16:09 AM 56.7567 27.8067 276° West 473 544 34,000  Level FlightAware ADS-B
Tue 07:17:09 AM 56.7593 27.5813 268° West 471 542 34,000  Level FlightAware ADS-B
Tue 07:18:10 AM 56.7545 27.3300 268° West 470 541 34,000  Level FlightAware ADS-B
Tue 07:19:10 AM 56.7493 27.1019 268° West 469 540 34,000  Level FlightAware ADS-B
Tue 07:20:11 AM 56.7433 26.8612 267° West 469 540 34,000  Level FlightAware ADS-B
Tue 07:21:16 AM 56.7367 26.6058 267° West 468 539 34,000  Level FlightAware ADS-B
Tue 07:22:20 AM 56.7297 26.3521 267° West 470 541 34,000  Level FlightAware ADS-B
Tue 07:23:22 AM 56.7225 26.1118 267° West 472 543 34,000  Level FlightAware ADS-B
Tue 07:24:23 AM 56.7144 25.8588 267° West 472 543 34,000  Level FlightAware ADS-B
Tue 07:25:24 AM 56.7065 25.6327 266° West 473 544 34,000  Level FlightAware ADS-B
Tue 07:26:25 AM 56.6974 25.3746 266° West 475 547 34,000  Level FlightAware ADS-B
Tue 07:27:27 AM 56.6888 25.1485 266° West 478 550 34,000  Level FlightAware ADS-B
Tue 07:28:28 AM 56.6785 24.8873 266° West 479 551 34,000  Level FlightAware ADS-B
Tue 07:29:32 AM 56.6684 24.6447 266° West 479 551 34,000  Level FlightAware ADS-B
Tue 07:30:32 AM 56.6576 24.4015 265° West 479 551 34,000  Level FlightAware ADS-B
Tue 07:31:33 AM 56.6466 24.1646 265° West 476 548 34,000  Level FlightAware ADS-B
Tue 07:32:33 AM 56.6349 23.9174 265° West 475 547 34,000  Level FlightAware ADS-B
Tue 07:33:34 AM 56.6230 23.6772 265° West 476 548 34,000  Level FlightAware ADS-B
Tue 07:34:35 AM 56.6098 23.4229 265° West 477 549 34,000  Level FlightAware ADS-B
Tue 07:35:40 AM 56.5964 23.1751 264° West 478 550 34,000  Level FlightAware ADS-B
Tue 07:36:45 AM 56.5821 22.9191 264° West 476 548 34,000  Level FlightAware ADS-B
Tue 07:37:46 AM 56.5675 22.6678 264° West 476 548 34,000  Level FlightAware ADS-B
Tue 07:38:47 AM 56.5538 22.4398 264° West 474 545 34,000  Level FlightAware ADS-B
Tue 07:39:48 AM 56.5391 22.2018 264° West 474 545 34,000  Level FlightAware ADS-B
Tue 07:40:48 AM 56.5243 21.9698 263° West 473 544 34,000  Level FlightAware ADS-B
Tue 07:41:50 AM 56.5086 21.7321 263° West 474 545 34,000  Level FlightAware ADS-B
Tue 07:42:55 AM 56.4915 21.4789 263° West 474 545 34,000  Level FlightAware ADS-B
Tue 07:43:59 AM 56.4735 21.2209 263° West 475 547 34,000  Level FlightAware ADS-B
Tue 07:45:01 AM 56.4587 21.0156 263° West 476 548 34,000  Level FlightAware ADS-B
Tue 08:00:45 AM 56.4881 17.2310 271° West 474 545 34,000  Level FlightAware ADS-B
Tue 08:01:21 AM 56.4892 17.1401 271° West 473 544 34,000  Level FlightAware ADS-B
Tue 08:01:56 AM 56.4918 16.9484 271° West 473 544 34,000  Level FlightAware ADS-B
Tue 08:02:35 AM 56.4930 16.8432 271° West 473 544 34,000  Level FlightAware ADS-B
Tue 08:04:06 AM 56.4967 16.4354 271° West 473 544 34,000  Level FlightAware ADS-B
Tue 08:04:39 AM 56.4977 16.3058 271° West 473 544 34,000  Level FlightAware ADS-B
Tue 08:05:13 AM 56.4985 16.1711 271° West 473 544 34,000  Level FlightAware ADS-B
Tue 08:05:45 AM 56.4990 16.0549 270° West 473 544 34,000  Level FlightAware ADS-B
Tue 08:06:15 AM 56.4996 15.9294 270° West 472 543 34,000  Level FlightAware ADS-B
Tue 08:06:46 AM 56.4999 15.8068 270° West 472 543 34,000  Level FlightAware ADS-B
Tue 08:07:20 AM 56.5003 15.6734 270° West 471 542 34,000  Level FlightAware ADS-B
Tue 08:08:04 AM 56.5004 15.4990 270° West 471 542 34,000  Level FlightAware ADS-B
Tue 08:08:37 AM 56.5004 15.3732 270° West 472 543 34,000  Level FlightAware ADS-B
Tue 08:09:07 AM 56.5003 15.2581 270° West 472 543 34,000  Level FlightAware ADS-B
Tue 08:09:53 AM 56.4998 15.0792 270° West 473 544 34,000  Level FlightAware ADS-B
Tue 08:10:23 AM 56.4993 14.9521 270° West 473 544 34,000  Level FlightAware ADS-B
Tue 08:11:10 AM 56.4984 14.7685 269° West 473 544 34,000  Level FlightAware ADS-B
Tue 08:11:40 AM 56.4975 14.6474 269° West 474 545 34,000  Level FlightAware ADS-B
Tue 08:12:10 AM 56.4967 14.5299 269° West 476 548 34,000  Level FlightAware ADS-B
Tue 08:13:03 AM 56.4950 14.3190 269° West 476 548 34,000  Level FlightAware ADS-B
Tue 08:13:37 AM 56.4937 14.1979 269° West 476 548 34,000  Level FlightAware ADS-B
Tue 08:14:09 AM 56.4924 14.0653 269° West 474 545 34,000  Level FlightAware ADS-B
Tue 08:14:50 AM 56.4903 13.8993 269° West 473 544 34,000  Level FlightAware ADS-B
Tue 08:15:35 AM 56.4879 13.7196 269° West 470 541 34,000  Level FlightAware ADS-B
Tue 08:16:08 AM 56.4860 13.5884 268° West 470 541 34,000  Level FlightAware ADS-B
Tue 08:16:23 AM 56.4849 13.5190 269° West 470 541 34,000  Level FlightAware ADS-B
Tue 08:16:54 AM 56.4835 13.4298 268° West 468 539 34,000  Level FlightAware ADS-B
Tue 08:17:32 AM 56.4804 13.2505 268° West 466 536 34,000  Level FlightAware ADS-B
Tue 08:18:03 AM 56.4784 13.1427 268° West 466 536 34,000  Level FlightAware ADS-B
Tue 08:18:33 AM 56.4759 13.0191 268° West 467 537 34,000  Level FlightAware ADS-B
Tue 08:19:03 AM 56.4738 12.9113 268° West 467 537 34,000  Level FlightAware ADS-B
Tue 08:19:33 AM 56.4713 12.7934 268° West 466 536 34,000  Level FlightAware ADS-B
Tue 08:20:07 AM 56.4682 12.6569 268° West 465 535 34,000  Level FlightAware ADS-B
Tue 08:20:42 AM 56.4652 12.5272 268° West 463 533 34,000  Level FlightAware ADS-B
Tue 08:21:14 AM 56.4622 12.4027 267° West 460 529 34,000  Level FlightAware ADS-B
Tue 08:21:33 AM 56.4600 12.3184 268° West 454 522 34,000  Level FlightAware ADS-B
Tue 08:22:04 AM 56.4572 12.2106 267° West 453 521 34,000  Level FlightAware ADS-B
Tue 08:22:37 AM 56.4542 12.0915 267° West 450 518 34,000  Level FlightAware ADS-B
Tue 08:22:47 AM 56.4527 12.0388 268° West 448 516 34,000  Level FlightAware ADS-B
Tue 08:23:17 AM 56.4498 11.9371 267° West 448 516 34,000  Level FlightAware ADS-B
Tue 08:23:31 AM 56.4481 11.8769 268° West 446 513 34,000  Level FlightAware ADS-B
Tue 08:23:40 AM 56.4472 11.8436 268° West 446 513 34,000  Level FlightAware ADS-B
Tue 08:24:12 AM 56.4439 11.7334 267° West 447 514 34,000  Level FlightAware ADS-B
Tue 08:24:43 AM 56.4404 11.6226 267° West 445 512 34,000  Level FlightAware ADS-B
Tue 08:25:13 AM 56.4368 11.5086 267° West 444 511 34,000  Level FlightAware ADS-B
Tue 08:25:48 AM 56.4326 11.3803 267° West 445 512 34,000  Level FlightAware ADS-B
Tue 08:26:18 AM 56.4289 11.2697 267° West 446 513 34,000  Level FlightAware ADS-B
Tue 08:26:53 AM 56.4245 11.1414 266° West 448 516 34,000  Level FlightAware ADS-B
Tue 08:27:23 AM 56.4206 11.0301 266° West 449 517 34,000  Level FlightAware ADS-B
Tue 08:27:53 AM 56.4163 10.9142 266° West 449 517 34,000  Level FlightAware ADS-B
Tue 08:28:23 AM 56.4121 10.8045 266° West 448 516 34,000  Level FlightAware ADS-B
Tue 08:29:09 AM 56.4056 10.6340 266° West 448 516 34,000  Level FlightAware ADS-B
Tue 08:29:40 AM 56.4012 10.5211 266° West 448 516 34,000  Level FlightAware ADS-B
Tue 08:30:24 AM 56.3943 10.3509 266° West 452 520 34,000  Level FlightAware ADS-B
Tue 08:31:00 AM 56.3888 10.2205 266° West 455 524 34,000  Level FlightAware ADS-B
Tue 08:31:37 AM 56.3827 10.0788 266° West 456 525 34,000  Level FlightAware ADS-B
Tue 08:32:54 AM 56.3693 9.7821 265° West 456 525 34,000  Level FlightAware ADS-B
Tue 08:33:56 AM 56.3585 9.5499 265° West 458 527 34,000  Level FlightAware ADS-B
Tue 08:35:05 AM 56.3486 9.3486 265° West 459 528 34,000  Level FlightAware ADS-B
Tue 08:35:44 AM 56.3387 9.1509 265° West 460 529 34,000  Level FlightAware ADS-B
Tue 08:36:18 AM 56.3324 9.0288 265° West 457 526 34,000  Level FlightAware ADS-B
Tue 08:37:01 AM 56.3231 8.8564 264° West 453 521 34,000 267 Level FlightAware ADS-B
Tue 08:37:48 AM 56.3139 8.6869 265° West 457 526 34,400 667 Climbing FlightAware ADS-B
Tue 08:38:31 AM 56.3058 8.5417 264° West 457 526 35,000 847 Climbing FlightAware ADS-B
Tue 08:39:13 AM 56.2951 8.3547 264° West 455 524 35,600 78 Climbing FlightAware ADS-B
Tue 08:51:16 AM 56.1130 5.6665 282° West 459 528 36,000 32 Climbing FlightAware UK
Tue 08:51:52 AM 56.1008 5.5394 260° West 452 520 36,000  Level FlightAware UK
Tue 08:52:22 AM 56.0914 5.4304 261° West 417 480 36,000  Level FlightAware UK
Tue 08:53:04 AM 56.0784 5.2784 261° West 459 528 36,000  Level FlightAware UK
Tue 08:55:40 AM 56.0287 4.7063 261° West 452 520 36,000  Level FlightAware UK
Tue 08:57:28 AM 55.9929 4.3076 261° West 452 520 36,000  Level FlightAware UK
Tue 08:58:16 AM 55.9768 4.1315 261° West 450 518 36,000  Level FlightAware UK
Tue 08:59:33 AM 55.9498 3.8478 260° West 450 518 36,000  Level FlightAware UK
Tue 09:00:09 AM 55.9370 3.7170 260° West 450 518 36,000  Level FlightAware UK
Tue 09:00:39 AM 55.9262 3.6080 260° West 450 518 36,000  Level FlightAware UK
Tue 09:01:27 AM 55.9116 3.4332 262° West 444 511 36,000  Level FlightAware UK
Tue 09:02:03 AM 55.9115 3.3024 270° West 442 509 36,000  Level FlightAware UK
Tue 09:02:33 AM 55.9087 3.1937 267° West 442 509 36,000  Level FlightAware UK
Tue 09:03:15 AM 55.9047 3.0412 267° West 442 509 36,000  Level FlightAware UK
Tue 09:03:51 AM 55.9013 2.9109 267° West 442 509 36,000  Level FlightAware UK
Tue 09:04:17 AM 55.9004 2.8730 268° West 442 509 36,000  Level FlightAware ADS-B
Tue 09:04:27 AM 55.8979 2.7811 267° West 440 506 36,000  Level FlightAware UK
Tue 09:05:03 AM 55.8943 2.6509 267° West 442 509 36,000  Level FlightAware UK
Tue 09:05:33 AM 55.8911 2.5421 267° West 442 509 36,000  Level FlightAware UK
Tue 09:06:03 AM 55.8877 2.4332 267° West 442 509 36,000  Level FlightAware UK
Tue 09:06:39 AM 55.8871 2.3016 268° West 438 504 36,000  Level FlightAware UK
Tue 09:07:15 AM 55.8905 2.1727 273° West 438 504 36,000  Level FlightAware UK
Tue 09:07:57 AM 55.8935 2.0227 272° West 436 502 36,000  Level FlightAware UK
Tue 09:08:17 AM 55.8951 1.9543 272° West 437 503 36,000  Level FlightAware ADS-B (EGNT / NCL)
Tue 09:09:03 AM 55.8981 1.7864 272° West 436 502 36,000  Level FlightAware UK
Tue 09:09:47 AM 55.9011 1.6301 271° West 436 502 36,000  Level FlightAware ADS-B
Tue 09:10:33 AM 55.9035 1.4890 272° West 435 501 36,000  Level FlightAware ADS-B (EGNT / NCL)
Tue 09:10:45 AM 55.9043 1.4380 272° West 435 501 36,000  Level FlightAware ADS-B (EGNT / NCL)
Tue 09:11:26 AM 55.9066 1.2731 272° West 434 499 36,000  Level FlightAware UK
Tue 09:11:54 AM 55.9081 1.1774 272° West 434 499 36,000  Level FlightAware ADS-B (EGNT / NCL)
Tue 09:12:33 AM 55.9099 1.0390 271° West 434 499 36,000  Level FlightAware ADS-B (EGNT / NCL)
Tue 09:13:08 AM 55.9114 0.9106 271° West 432 497 36,000  Level FlightAware UK
Tue 09:13:15 AM 55.9117 0.8873 271° West 433 498 36,000  Level FlightAware ADS-B (EGNT / NCL)
Tue 09:13:53 AM 55.9131 0.7545 271° West 433 498 36,000  Level FlightAware ADS-B (EGNT / NCL)
Tue 09:14:35 AM 55.9145 0.6107 271° West 434 499 36,000  Level FlightAware ADS-B (EGNT / NCL)
Tue 09:15:10 AM 55.9156 0.4783 271° West 434 499 36,000  Level FlightAware ADS-B (EGNT / NCL)
Tue 09:15:42 AM 55.9165 0.3710 271° West 435 501 36,000  Level FlightAware ADS-B (EGNT / NCL)
Tue 09:16:13 AM 55.9172 0.2587 271° West 436 502 36,000  Level FlightAware ADS-B (EGNT / NCL)
Tue 09:16:44 AM 55.9179 0.1447 271° West 437 503 36,000  Level FlightAware ADS-B (EGNT / NCL)
Tue 09:17:01 AM 55.9182 0.0810 271° West 438 504 36,000  Level FlightAware ADS-B
Tue 09:17:34 AM 55.9187 -0.0359 270° West 439 505 36,000  Level FlightAware ADS-B (EGNT / NCL)
Tue 09:18:04 AM 55.9190 -0.1383 270° West 440 506 36,000  Level FlightAware ADS-B (EGNT / NCL)
Tue 09:18:36 AM 55.9193 -0.2578 270° West 440 506 36,000  Level FlightAware ADS-B (EGPH / EDI)
Tue 09:19:12 AM 55.9195 -0.3903 270° West 439 505 36,000  Level FlightAware ADS-B
Tue 09:19:46 AM 55.9195 -0.5119 270° West 439 505 36,000  Level FlightAware ADS-B
Tue 09:20:16 AM 55.9195 -0.6208 270° West 438 504 36,000  Level FlightAware ADS-B
Tue 09:21:02 AM 55.9192 -0.7779 270° West 437 503 36,000  Level FlightAware ADS-B (EGNT / NCL)
Tue 09:21:33 AM 55.9188 -0.8981 270° West 436 502 36,000  Level FlightAware ADS-B (EGPH / EDI)
Tue 09:21:53 AM 55.9183 -0.9692 267° West 438 504 36,000  Level FlightAware ADS-B
Tue 09:22:09 AM 55.9127 -1.0293 255° West 444 511 36,000  Level FlightAware ADS-B
Tue 09:22:14 AM 55.9099 -1.0456 253° West 446 513 36,000  Level FlightAware ADS-B
Tue 09:22:23 AM 55.9034 -1.0749 249° West 446 513 36,000  Level FlightAware ADS-B (KLEX)
Tue 09:22:56 AM 55.8778 -1.1853 248° West 450 518 36,000  Level FlightAware ADS-B
Tue 09:23:39 AM 55.8527 -1.2938 248° West 450 518 36,000  Level FlightAware ADS-B
Tue 09:24:22 AM 55.8103 -1.4766 248° West 450 518 36,000  Level FlightAware ADS-B
Tue 09:24:28 AM 55.8047 -1.5005 248° West 446 513 36,000  Level FlightAware ADS-B
Tue 09:25:06 AM 55.7744 -1.6297 247° West 451 519 36,000  Level FlightAware ADS-B
Tue 09:25:21 AM 55.7623 -1.6812 247° West 451 519 36,000  Level FlightAware ADS-B
Tue 09:25:29 AM 55.7560 -1.7080 248° West 448 516 36,000  Level FlightAware ADS-B (KLEX)
Tue 09:25:50 AM 55.7395 -1.7785 248° West 447 514 36,000  Level FlightAware ADS-B
Tue 09:26:02 AM 55.7295 -1.8211 248° West 447 514 36,000  Level FlightAware ADS-B (KLEX)
Tue 09:26:22 AM 55.7135 -1.8890 248° West 447 514 36,000  Level FlightAware ADS-B (KLEX)
Tue 09:26:45 AM 55.6946 -1.9693 247° West 450 518 36,000  Level FlightAware ADS-B (EGNT / NCL)
Tue 09:27:15 AM 55.6720 -2.0648 247° West 451 519 36,000  Level FlightAware ADS-B (EGPH / EDI)
Tue 09:27:53 AM 55.6420 -2.1901 247° West 453 521 36,000  Level FlightAware ADS-B
Tue 09:28:23 AM 55.6160 -2.2989 247° West 453 521 36,000  Level FlightAware ADS-B (EGNT / NCL)
Tue 09:28:54 AM 55.5906 -2.4039 247° West 453 521 36,000  Level FlightAware ADS-B
Tue 09:29:24 AM 55.5668 -2.5021 247° West 452 520 36,000  Level FlightAware ADS-B (EGPH / EDI)
Tue 09:29:54 AM 55.5414 -2.6065 247° West 451 519 36,000  Level FlightAware ADS-B
Tue 09:30:27 AM 55.5146 -2.7162 247° West 450 518 36,000  Level FlightAware ADS-B
Tue 09:30:58 AM 55.4884 -2.8227 247° West 449 517 36,000  Level FlightAware ADS-B
Tue 09:31:28 AM 55.4636 -2.9231 247° West 448 516 36,000  Level FlightAware ADS-B (EGNT / NCL)
Tue 09:31:31 AM 55.4609 -2.9338 247° West 448 516 36,000  Level FlightAware ADS-B
Tue 09:32:01 AM 55.4379 -3.0267 246° West 448 516 36,000  Level FlightAware ADS-B
Tue 09:32:33 AM 55.4094 -3.1411 246° West 448 516 36,000  Level FlightAware ADS-B
Tue 09:33:09 AM 55.3800 -3.2581 246° West 448 516 36,000  Level FlightAware ADS-B (EGPH / EDI)
Tue 09:33:42 AM 55.3524 -3.3680 246° West 449 517 36,000  Level FlightAware ADS-B
Tue 09:34:13 AM 55.3264 -3.4704 246° West 448 516 36,000  Level FlightAware ADS-B
Tue 09:34:36 AM 55.3070 -3.5466 247° West 445 512 36,000  Level FlightAware ADS-B (KLEX)
Tue 09:34:55 AM 55.2923 -3.6046 246° West 447 514 36,000  Level FlightAware ADS-B
Tue 09:35:26 AM 55.2657 -3.7084 246° West 445 512 36,000  Level FlightAware ADS-B
Tue 09:35:46 AM 55.2479 -3.7775 247° West 441 507 36,000  Level FlightAware ADS-B (KLEX)
Tue 09:35:57 AM 55.2395 -3.8103 247° West 440 506 36,000  Level FlightAware ADS-B
Tue 09:36:27 AM 55.2129 -3.9132 246° West 443 510 36,000  Level FlightAware ADS-B
Tue 09:36:59 AM 55.1868 -4.0137 247° West 439 505 36,000  Level FlightAware ADS-B (KLEX)
Tue 09:37:07 AM 55.1809 -4.0366 247° West 439 505 36,000  Level FlightAware ADS-B
Tue 09:37:43 AM 55.1503 -4.1537 246° West 444 511 36,000  Level FlightAware ADS-B
Tue 09:37:48 AM 55.1474 -4.1649 246° West 444 511 36,000  Level FlightAware ADS-B (LFPO / ORY)
Tue 09:37:54 AM 55.1409 -4.1898 246° West 441 507 36,000  Level FlightAware ADS-B
Tue 09:37:58 AM 55.1367 -4.2058 245° Southwest 444 511 36,000  Level FlightAware ADS-B (LFMN / NCE)
Tue 09:38:28 AM 55.1108 -4.3046 246° West 442 509 36,000  Level FlightAware ADS-B (KFUL)
Tue 09:39:01 AM 55.0823 -4.4124 245° Southwest 448 516 36,000  Level FlightAware ADS-B
Tue 09:39:19 AM 55.0666 -4.4718 246° West 445 512 36,000  Level FlightAware ADS-B
Tue 09:39:38 AM 55.0501 -4.5338 246° West 445 512 36,000  Level FlightAware ADS-B
Tue 09:40:02 AM 55.0290 -4.6127 246° West 446 513 36,000  Level FlightAware ADS-B (KFUL)
Tue 09:40:24 AM 55.0096 -4.6853 246° West 446 513 36,000  Level FlightAware ADS-B
Tue 09:40:54 AM 54.9864 -4.7718 245° Southwest 451 519 36,000  Level FlightAware ADS-B (LFPO / ORY)
Tue 09:41:25 AM 54.9568 -4.8819 245° Southwest 449 517 36,000  Level FlightAware ADS-B
Tue 09:41:57 AM 54.9284 -4.9866 245° Southwest 449 517 36,000  Level FlightAware ADS-B
Tue 09:42:31 AM 54.8988 -5.0952 245° Southwest 448 516 36,000  Level FlightAware ADS-B
Tue 09:43:01 AM 54.8722 -5.1927 245° Southwest 448 516 36,000  Level FlightAware ADS-B
Tue 09:43:39 AM 54.8608 -5.2341 244° Southwest 449 517 36,000  Level FlightAware ADS-B (EGAA / BFS)
Tue 09:44:11 AM 54.8089 -5.4225 244° Southwest 448 516 36,000  Level FlightAware UK
Tue 09:44:16 AM 54.8051 -5.4365 244° Southwest 448 516 36,000  Level FlightAware ADS-B
Tue 09:44:49 AM 54.7758 -5.5419 244° Southwest 446 513 36,000  Level FlightAware ADS-B
Tue 09:45:26 AM 54.7415 -5.6614 242° Southwest 441 507 36,000  Level FlightAware ADS-B
Tue 09:45:30 AM 54.7376 -5.6732 241° Southwest 441 507 36,000  Level FlightAware ADS-B (KLEX)
Tue 09:46:03 AM 54.7031 -5.7740 239° Southwest 444 511 36,000  Level FlightAware ADS-B
Tue 09:46:35 AM 54.6709 -5.8689 240° Southwest 443 510 36,000  Level FlightAware ADS-B
Tue 09:46:48 AM 54.6565 -5.9119 240° Southwest 443 510 36,000  Level FlightAware ADS-B (EGAA / BFS)
Tue 09:47:04 AM 54.6418 -5.9557 241° Southwest 440 506 36,000  Level FlightAware ADS-B (KLEX)
Tue 09:47:23 AM 54.6207 -6.0187 241° Southwest 440 506 36,000  Level FlightAware ADS-B (KLEX)
Tue 09:47:57 AM 54.5885 -6.1145 240° Southwest 445 512 36,000  Level FlightAware ADS-B (EGAA / BFS)
Tue 09:48:31 AM 54.5529 -6.2200 240° Southwest 445 512 36,000  Level FlightAware ADS-B (EGAA / BFS)
Tue 09:49:01 AM 54.5197 -6.3182 240° Southwest 445 512 36,000  Level FlightAware ADS-B
Tue 09:49:35 AM 54.4864 -6.4163 240° Southwest 444 511 36,000  Level FlightAware ADS-B (EGAA / BFS)
Tue 09:50:06 AM 54.4542 -6.5107 240° Southwest 444 511 36,000  Level FlightAware ADS-B (EGAA / BFS)
Tue 09:50:45 AM 54.4123 -6.6327 240° Southwest 443 510 36,000  Level FlightAware ADS-B
Tue 09:51:18 AM 54.3782 -6.7319 239° Southwest 443 510 36,000  Level FlightAware ADS-B
Tue 09:51:57 AM 54.3376 -6.8493 239° Southwest 442 509 36,000  Level FlightAware ADS-B (EGAA / BFS)
Tue 09:52:28 AM 54.3065 -6.9388 239° Southwest 441 507 36,000  Level FlightAware ADS-B (EIDW / DUB)
Tue 09:52:59 AM 54.2733 -7.0344 239° Southwest 441 507 36,000  Level FlightAware ADS-B (EGAA / BFS)
Tue 09:53:29 AM 54.2419 -7.1240 239° Southwest 440 506 36,000  Level FlightAware ADS-B (EIDW / DUB)
Tue 09:53:59 AM 54.2110 -7.2122 239° Southwest 441 507 36,000  Level FlightAware ADS-B (EGAA / BFS)
Tue 09:54:30 AM 54.1781 -7.3054 239° Southwest 440 506 36,000  Level FlightAware ADS-B (KLEX)
Tue 09:55:03 AM 54.1437 -7.4027 239° Southwest 441 507 36,000  Level FlightAware ADS-B (EGAA / BFS)
Tue 09:55:36 AM 54.1090 -7.5004 239° Southwest 440 506 36,000  Level FlightAware ADS-B
Tue 09:56:06 AM 54.0776 -7.5883 239° Southwest 439 505 36,000  Level FlightAware ADS-B
Tue 09:56:45 AM 54.0363 -7.7038 239° Southwest 439 505 36,000  Level FlightAware ADS-B
Tue 09:57:15 AM 54.0048 -7.7914 239° Southwest 439 505 36,000  Level FlightAware ADS-B (KHQM)
Tue 09:57:46 AM 53.9719 -7.8828 238° Southwest 439 505 36,000  Level FlightAware ADS-B
Tue 09:58:24 AM 53.9310 -7.9957 238° Southwest 439 505 36,000  Level FlightAware ADS-B (EGAA / BFS)
Tue 09:58:54 AM 53.8993 -8.0829 238° Southwest 438 504 36,000  Level FlightAware ADS-B (KHQM)
Tue 09:59:14 AM 53.8784 -8.1401 239° Southwest 435 501 36,000  Level FlightAware ADS-B (KLEX)
Tue 09:59:34 AM 53.8575 -8.1970 239° Southwest 434 499 36,000  Level FlightAware ADS-B (KLEX)
Tue 09:59:58 AM 53.8353 -8.2577 238° Southwest 438 504 36,000  Level FlightAware ADS-B (KHQM)
Tue 10:00:18 AM 53.8103 -8.3258 238° Southwest 437 503 36,000  Level FlightAware ADS-B (EGAA / BFS)
Tue 10:00:47 AM 53.7796 -8.4091 238° Southwest 437 503 36,000  Level FlightAware ADS-B (EGAA / BFS)
Tue 10:01:19 AM 53.7469 -8.4978 238° Southwest 436 502 36,000  Level FlightAware ADS-B (KHQM)
Tue 10:01:58 AM 53.7038 -8.6138 238° Southwest 437 503 36,000  Level FlightAware ADS-B (KHQM)
Tue 10:02:04 AM 53.6974 -8.6310 239° Southwest 433 498 36,000  Level FlightAware ADS-B (KLEX)
Tue 10:02:39 AM 53.6601 -8.7309 238° Southwest 437 503 36,000  Level FlightAware ADS-B (KHQM)
Tue 10:03:10 AM 53.6256 -8.8237 238° Southwest 436 502 36,000  Level FlightAware UK
Tue 10:03:19 AM 53.6197 -8.8387 238° Southwest 438 504 36,000  Level FlightAware ADS-B (KHQM)
Tue 10:03:40 AM 53.5932 -8.9091 239° Southwest 434 499 36,000  Level FlightAware ADS-B
Tue 10:04:00 AM 53.5722 -8.9648 239° Southwest 434 499 36,000  Level FlightAware ADS-B
Tue 10:04:30 AM 53.5410 -9.0473 238° Southwest 438 504 36,000  Level FlightAware ADS-B (KHQM)
Tue 10:05:00 AM 53.5076 -9.1355 238° Southwest 439 505 36,000  Level FlightAware ADS-B (KHQM)
Tue 10:05:35 AM 53.4691 -9.2365 238° Southwest 434 499 36,000  Level FlightAware ADS-B (KLEX)
Tue 10:06:10 AM 53.4319 -9.3338 237° Southwest 437 503 36,000  Level FlightAware ADS-B (KHQM)
Tue 10:06:50 AM 53.3877 -9.4489 237° Southwest 436 502 36,000  Level FlightAware ADS-B (KHQM)
Tue 10:07:20 AM 53.3551 -9.5335 237° Southwest 437 503 36,000  Level FlightAware ADS-B (KHQM)
Tue 10:08:00 AM 53.3112 -9.6467 237° Southwest 436 502 36,000  Level FlightAware ADS-B (KHQM)
Tue 10:08:30 AM 53.2786 -9.7309 237° Southwest 435 501 36,000  Level FlightAware ADS-B (KHQM)
Tue 10:09:09 AM 53.2358 -9.8405 237° Southwest 436 502 36,000  Level FlightAware ADS-B (KHQM)
Tue 10:09:40 AM 53.2021 -9.9265 237° Southwest 435 501 36,000  Level FlightAware ADS-B (KHQM)
Tue 10:10:10 AM 53.1688 -10.0113 237° Southwest 436 502 36,000  Level FlightAware ADS-B (KHQM)
Tue 10:10:40 AM 53.1364 -10.0936 237° Southwest 437 503 36,000  Level FlightAware ADS-B (KHQM)
Tue 10:11:20 AM 53.0912 -10.2077 237° Southwest 437 503 36,000  Level FlightAware ADS-B (KHQM)
Tue 10:12:03 AM 53.0429 -10.3293 237° Southwest 437 503 36,000  Level FlightAware ADS-B (KHQM)
Tue 10:12:33 AM 53.0099 -10.4121 236° Southwest 436 502 36,000  Level FlightAware ADS-B (KHQM)
Tue 10:13:13 AM 52.9667 -10.5196 237° Southwest 434 499 36,000  Level FlightAware ADS-B (KHQM)
Tue 10:13:52 AM 52.9223 -10.6300 236° Southwest 432 497 36,000  Level FlightAware ADS-B (KHQM)
Tue 10:14:23 AM 52.8881 -10.7147 236° Southwest 431 496 36,000  Level FlightAware ADS-B (KHQM)
Tue 10:14:53 AM 52.8544 -10.7979 236° Southwest 431 496 36,000  Level FlightAware ADS-B (KHQM)
Tue 10:15:23 AM 52.8224 -10.8764 236° Southwest 431 496 36,000  Level FlightAware ADS-B (KHQM)
Tue 10:15:53 AM 52.7893 -10.9577 236° Southwest 431 496 36,000  Level FlightAware ADS-B (KHQM)
Tue 10:16:23 AM 52.7560 -11.0390 236° Southwest 431 496 36,000  Level FlightAware ADS-B (KHQM)
Tue 10:16:54 AM 52.7232 -11.1189 236° Southwest 431 496 36,000  Level FlightAware ADS-B (KHQM)
Tue 10:17:24 AM 52.6868 -11.2074 236° Southwest 431 496 36,000  Level FlightAware ADS-B (KHQM)
Tue 10:17:54 AM 52.6541 -11.2864 236° Southwest 432 497 36,000  Level FlightAware ADS-B (KHQM)
Tue 10:18:34 AM 52.6105 -11.3914 236° Southwest 432 497 36,000  Level FlightAware ADS-B (KHQM)
Tue 10:19:07 AM 52.5711 -11.4861 236° Southwest 432 497 36,000 -92 Level FlightAware ADS-B (KHQM)
Tue 11:12:39 AM 49.0000 -20.0000 243° Southwest 490 564 31,000 -85 Descending ETMS Enhanced Traffic Management System
Tue 11:13:00 AM 52.0680 -22.2416 262° West  Level Estimated
Tue 11:14:00 AM 52.0495 -22.4382 261° West  Level Estimated
Tue 11:15:00 AM 52.0307 -22.6346 261° West  Level Estimated
Tue 11:16:00 AM 52.0115 -22.8308 261° West  Level Estimated
Tue 11:17:00 AM 51.9920 -23.0268 261° West  Level Estimated
Tue 11:18:00 AM 48.5651 -21.2872 242° Southwest 490 564 31,000  Level FlightAware Transoceanic
Tue 11:19:00 AM 48.5019 -21.4692 242° Southwest 490 564 31,000  Level FlightAware Transoceanic
Tue 11:20:00 AM 48.4383 -21.6508 242° Southwest 490 564 31,000  Level FlightAware Transoceanic
Tue 11:21:00 AM 48.3744 -21.8320 242° Southwest 490 564 31,000  Level FlightAware Transoceanic
Tue 11:22:00 AM 48.3103 -22.0127 242° Southwest 490 564 31,000  Level FlightAware Transoceanic
Tue 11:23:00 AM 48.2459 -22.1929 242° Southwest 490 564 31,000  Level FlightAware Transoceanic
Tue 11:24:00 AM 48.1812 -22.3727 242° Southwest 490 564 31,000  Level FlightAware Transoceanic
Tue 11:25:00 AM 48.1162 -22.5520 241° Southwest 490 564 31,000  Level FlightAware Transoceanic
Tue 11:26:00 AM 48.0509 -22.7309 241° Southwest 490 564 31,000  Level FlightAware Transoceanic
Tue 11:27:00 AM 47.9854 -22.9093 241° Southwest 490 564 31,000  Level FlightAware Transoceanic
Tue 11:28:00 AM 47.9196 -23.0873 241° Southwest 490 564 31,000  Level FlightAware Transoceanic
Tue 11:29:00 AM 47.8535 -23.2648 241° Southwest 490 564 31,000  Level FlightAware Transoceanic
Tue 11:30:00 AM 47.7871 -23.4419 241° Southwest 490 564 31,000  Level FlightAware Transoceanic
Tue 11:31:00 AM 47.7205 -23.6185 241° Southwest 490 564 31,000  Level FlightAware Transoceanic
Tue 11:32:00 AM 47.6536 -23.7947 241° Southwest 490 564 31,000  Level FlightAware Transoceanic
Tue 11:33:00 AM 47.5864 -23.9704 240° Southwest 490 564 31,000  Level FlightAware Transoceanic
Tue 11:34:00 AM 47.5190 -24.1456 240° Southwest 490 564 31,000  Level FlightAware Transoceanic
Tue 11:35:00 AM 47.4513 -24.3204 240° Southwest 490 564 31,000  Level FlightAware Transoceanic
Tue 11:36:00 AM 47.3833 -24.4948 240° Southwest 490 564 31,000  Level FlightAware Transoceanic
Tue 11:37:00 AM 47.3151 -24.6687 240° Southwest 490 564 31,000  Level FlightAware Transoceanic
Tue 11:38:00 AM 47.2466 -24.8421 240° Southwest 490 564 31,000  Level FlightAware Transoceanic
Tue 11:39:00 AM 47.1778 -25.0152 240° Southwest 490 564 31,000  Level FlightAware Transoceanic
Tue 11:40:00 AM 47.1088 -25.1877 239° Southwest 490 564 31,000  Level FlightAware Transoceanic
Tue 11:41:00 AM 47.0395 -25.3598 239° Southwest 490 564 31,000  Level FlightAware Transoceanic
Tue 11:42:00 AM 46.9700 -25.5315 239° Southwest 490 564 31,000  Level FlightAware Transoceanic
Tue 11:43:00 AM 46.9002 -25.7027 239° Southwest 490 564 31,000  Level FlightAware Transoceanic
Tue 11:44:00 AM 46.8302 -25.8735 239° Southwest 490 564 31,000  Level FlightAware Transoceanic
Tue 11:45:00 AM 46.7598 -26.0438 239° Southwest 490 564 31,000  Level FlightAware Transoceanic
Tue 11:46:00 AM 46.6893 -26.2137 239° Southwest 490 564 31,000  Level FlightAware Transoceanic
Tue 11:47:00 AM 46.6185 -26.3831 239° Southwest 490 564 31,000  Level FlightAware Transoceanic
Tue 11:48:00 AM 46.5475 -26.5521 238° Southwest 490 564 31,000  Level FlightAware Transoceanic
Tue 11:49:00 AM 46.4762 -26.7207 238° Southwest 490 564 31,000  Level FlightAware Transoceanic
Tue 11:50:00 AM 46.4046 -26.8888 238° Southwest 490 564 31,000  Level FlightAware Transoceanic
Tue 11:51:00 AM 46.3328 -27.0564 238° Southwest 490 564 31,000  Level FlightAware Transoceanic
Tue 11:52:00 AM 46.2608 -27.2237 238° Southwest 490 564 31,000  Level FlightAware Transoceanic
Tue 11:53:00 AM 46.1885 -27.3905 238° Southwest 490 564 31,000  Level FlightAware Transoceanic
Tue 11:54:00 AM 46.1160 -27.5568 238° Southwest 490 564 31,000  Level FlightAware Transoceanic
Tue 11:55:00 AM 46.0432 -27.7227 238° Southwest 490 564 31,000  Level FlightAware Transoceanic
Tue 11:56:00 AM 45.9702 -27.8882 238° Southwest 490 564 31,000  Level FlightAware Transoceanic
Tue 11:57:00 AM 45.8970 -28.0532 237° Southwest 490 564 31,000  Level FlightAware Transoceanic
Tue 11:58:00 AM 45.8235 -28.2178 237° Southwest 490 564 31,000  Level FlightAware Transoceanic
Tue 11:59:00 AM 45.7498 -28.3820 237° Southwest 490 564 31,000  Level FlightAware Transoceanic
Tue 12:00:00 PM 45.6759 -28.5457 237° Southwest 490 564 31,000  Level FlightAware Transoceanic
Tue 12:01:00 PM 45.6017 -28.7090 237° Southwest 490 564 31,000  Level FlightAware Transoceanic
Tue 12:02:00 PM 45.5273 -28.8719 237° Southwest 490 564 31,000  Level FlightAware Transoceanic
Tue 12:03:00 PM 45.4526 -29.0344 237° Southwest 490 564 31,000  Level FlightAware Transoceanic
Tue 12:04:00 PM 45.3778 -29.1964 237° Southwest 490 564 31,000  Level FlightAware Transoceanic
Tue 12:05:00 PM 45.3027 -29.3580 236° Southwest 490 564 31,000  Level FlightAware Transoceanic
Tue 12:06:00 PM 45.2273 -29.5191 236° Southwest 490 564 31,000  Level FlightAware Transoceanic
Tue 12:07:00 PM 45.1518 -29.6798 236° Southwest 490 564 31,000  Level FlightAware Transoceanic
Tue 12:08:00 PM 45.0760 -29.8401 236° Southwest 490 564 31,000 32 Level FlightAware Transoceanic
Tue 12:09:00 PM 45.0560 -30.0109 261° West  Level Estimated
Tue 12:10:00 PM 45.0358 -30.1815 261° West  Level Estimated
Tue 12:11:00 PM 45.0153 -30.3521 260° West  Level Estimated
Tue 12:12:00 PM 44.9945 -30.5225 260° West  Level Estimated
Tue 12:13:00 PM 44.9735 -30.6927 260° West  Level Estimated
Tue 12:14:00 PM 44.9523 -30.8629 260° West  Level Estimated
Tue 12:15:00 PM 44.9307 -31.0329 260° West  Level Estimated
Tue 12:16:00 PM 44.9090 -31.2028 260° West  Level Estimated
Tue 12:17:00 PM 44.8870 -31.3726 260° West  Level Estimated
Tue 12:18:00 PM 44.8647 -31.5422 260° West  Level Estimated
Tue 12:19:00 PM 44.8422 -31.7117 259° West  Level Estimated
Tue 12:20:00 PM 44.8194 -31.8811 259° West  Level Estimated
Tue 12:21:00 PM 44.7964 -32.0503 259° West  Level Estimated
Tue 12:22:00 PM 44.7731 -32.2194 259° West  Level Estimated
Tue 12:23:00 PM 44.7496 -32.3884 259° West  Level Estimated
Tue 12:24:00 PM 44.7258 -32.5572 259° West  Level Estimated
Tue 12:25:00 PM 44.7018 -32.7259 259° West  Level Estimated
Tue 12:26:00 PM 44.6776 -32.8944 259° West  Level Estimated
Tue 12:27:00 PM 44.6530 -33.0628 258° West  Level Estimated
Tue 12:28:00 PM 44.6283 -33.2311 258° West  Level Estimated
Tue 12:29:00 PM 44.6033 -33.3992 258° West  Level Estimated
Tue 12:30:00 PM 44.5780 -33.5672 258° West  Level Estimated
Tue 12:31:00 PM 44.5525 -33.7350 258° West  Level Estimated
Tue 12:32:00 PM 44.5268 -33.9027 258° West  Level Estimated
Tue 12:33:00 PM 44.5008 -34.0702 258° West  Level Estimated
Tue 12:34:00 PM 44.4746 -34.2376 258° West  Level Estimated
Tue 12:35:00 PM 44.4481 -34.4048 258° West  Level Estimated
Tue 12:36:00 PM 44.4214 -34.5719 257° West  Level Estimated
Tue 12:37:00 PM 44.3944 -34.7388 257° West  Level Estimated
Tue 12:38:00 PM 44.3672 -34.9056 257° West  Level Estimated
Tue 12:39:00 PM 44.3398 -35.0722 257° West  Level Estimated
Tue 12:40:00 PM 44.3121 -35.2386 257° West  Level Estimated
Tue 12:41:00 PM 44.2841 -35.4049 257° West  Level Estimated
Tue 12:42:00 PM 44.2560 -35.5711 257° West  Level Estimated
Tue 12:43:00 PM 44.2276 -35.7370 257° West  Level Estimated
Tue 12:44:00 PM 44.1989 -35.9029 257° West  Level Estimated
Tue 12:45:00 PM 44.1700 -36.0685 256° West  Level Estimated
Tue 12:46:00 PM 44.1409 -36.2340 256° West  Level Estimated
Tue 12:47:00 PM 44.1115 -36.3993 256° West  Level Estimated
Tue 12:48:00 PM 44.0819 -36.5645 256° West  Level Estimated
Tue 12:49:00 PM 44.0520 -36.7295 256° West  Level Estimated
Tue 12:50:00 PM 44.0220 -36.8943 256° West  Level Estimated
Tue 12:51:00 PM 43.9916 -37.0590 256° West  Level Estimated
Tue 12:52:00 PM 43.9611 -37.2235 256° West  Level Estimated
Tue 12:53:00 PM 43.9303 -37.3878 255° West  Level Estimated
Tue 12:54:00 PM 43.8993 -37.5520 255° West  Level Estimated
Tue 12:55:00 PM 43.8680 -37.7160 255° West  Level Estimated
Tue 12:56:00 PM 43.8365 -37.8798 255° West  Level Estimated
Tue 12:57:00 PM 43.8048 -38.0434 255° West  Level Estimated
Tue 12:58:00 PM 43.7728 -38.2069 255° West  Level Estimated
Tue 12:59:00 PM 43.7406 -38.3702 255° West  Level Estimated
Tue 01:00:00 PM 43.7082 -38.5333 255° West  Level Estimated
Tue 01:01:00 PM 43.6755 -38.6962 255° West  Level Estimated
Tue 01:02:00 PM 43.6426 -38.8590 254° West  Level Estimated
Tue 01:03:00 PM 43.6095 -39.0215 254° West  Level Estimated
Tue 01:04:00 PM 43.5761 -39.1839 254° West  Level Estimated
Tue 01:05:00 PM 43.5426 -39.3461 254° West  Level Estimated
Tue 01:06:00 PM 43.5088 -39.5082 254° West  Level Estimated
Tue 01:07:00 PM 43.4747 -39.6700 254° West  Level Estimated
Tue 01:08:00 PM 43.4404 -39.8317 254° West  Level Estimated
Tue 01:09:00 PM 43.4059 -39.9932 254° West  Level Estimated
Tue 01:09:24 PM 42.0000 -40.0000 252° West 488 562 33,000  Level New York Oceanic (ODAPS)
Tue 01:15:34 PM 41.7167 -41.1500 251° West 484 557 33,000  Level New York Oceanic (ODAPS)
Tue 01:25:10 PM 41.2667 -42.8167 250° West 480 552 33,000  Level New York Oceanic (ODAPS)
Tue 01:34:46 PM 40.8167 -44.4333 249° West 479 551 33,000  Level New York Oceanic (ODAPS)
Tue 01:44:22 PM 40.3333 -46.0333 248° West 485 558 33,000  Level New York Oceanic (ODAPS)
Tue 01:53:58 PM 39.8333 -47.6000 247° West 478 550 33,000  Level New York Oceanic (ODAPS)
Tue 02:03:34 PM 39.3167 -49.1167 245° Southwest 480 552 33,000  Level New York Oceanic (ODAPS)
Tue 02:09:28 PM 39.0000 -50.0000 234° Southwest 486 559 33,000  Level New York Oceanic (ODAPS)
Tue 02:13:10 PM 38.6833 -50.5500 234° Southwest 480 552 33,000  Level New York Oceanic (ODAPS)
Tue 02:22:46 PM 37.9333 -51.8833 233° Southwest 479 551 33,000  Level New York Oceanic (ODAPS)
Tue 02:32:22 PM 37.1500 -53.1667 233° Southwest 482 555 33,000  Level New York Oceanic (ODAPS)
Tue 02:41:58 PM 36.3667 -54.4333 231° Southwest 480 552 33,000  Level New York Oceanic (ODAPS)
Tue 02:46:23 PM 36.0000 -55.0000 245° Southwest 481 554 33,000  Level New York Oceanic (ODAPS)
Tue 02:51:34 PM 35.7000 -55.8000 245° Southwest 480 552 33,000  Level New York Oceanic (ODAPS)
Tue 03:01:10 PM 35.1500 -57.2000 244° Southwest 475 547 33,000  Level New York Oceanic (ODAPS)
Tue 03:10:46 PM 34.6000 -58.5833 243° Southwest 476 548 33,000  Level New York Oceanic (ODAPS)
Tue 03:20:22 PM 34.0167 -59.9500 248° West 364 419 33,000  Level New York Oceanic (ODAPS)
Tue 03:20:46 PM 34.0000 -60.0000 252° West 477 549 33,000  Level New York Oceanic (ODAPS)
Tue 03:29:50 PM 33.6031 -61.3961 242° Southwest 483 556 33,000  Level New York Center
Tue 03:30:00 PM 33.5833 -61.4833 242° Southwest 477 549 33,000  Level FlightAware Transoceanic
Tue 03:30:50 PM 33.5467 -61.5269 243° Southwest 504 580 33,000  Level New York Center
Tue 03:31:00 PM 33.5222 -61.6235 242° Southwest 477 549 33,000  Level FlightAware Transoceanic
Tue 03:31:50 PM 33.4800 -61.6911 244° Southwest 509 586 33,000  Level New York Center
Tue 03:32:00 PM 33.4609 -61.7635 242° Southwest 477 549 33,000  Level FlightAware Transoceanic
Tue 03:32:50 PM 33.4136 -61.8325 241° Southwest 504 580 33,000  Level New York Center
Tue 03:33:00 PM 33.3994 -61.9034 242° Southwest 477 549 33,000  Level FlightAware Transoceanic
Tue 03:33:50 PM 33.3550 -61.9656 242° Southwest 504 580 33,000  Level New York Center
Tue 03:34:00 PM 33.3378 -62.0430 242° Southwest 477 549 33,000  Level FlightAware Transoceanic
Tue 03:34:50 PM 33.2878 -62.1292 244° Southwest 504 580 33,000  Level New York Center
Tue 03:35:50 PM 33.2250 -62.2719 242° Southwest 499 574 33,000  Level New York Center
Tue 03:36:50 PM 33.1658 -62.4044 242° Southwest 499 574 33,000  Level New York Center
Tue 03:37:50 PM 33.0911 -62.5603 240° Southwest 504 580 33,000  Level New York Center
Tue 03:38:50 PM 33.0283 -62.7075 243° Southwest 504 580 33,000  Level New York Center
Tue 03:39:50 PM 32.9681 -62.8344 241° Southwest 504 580 33,000  Level New York Center
Tue 03:40:50 PM 32.9017 -62.9964 244° Southwest 504 580 33,000  Level New York Center
Tue 03:41:50 PM 32.8414 -63.1256 241° Southwest 499 574 33,000  Level New York Center
Tue 03:42:50 PM 32.7722 -63.2822 242° Southwest 499 574 33,000  Level New York Center
Tue 03:43:50 PM 32.7083 -63.4258 242° Southwest 499 574 33,000  Level New York Center
Tue 03:44:50 PM 32.6492 -63.5517 241° Southwest 499 574 33,000  Level New York Center
Tue 03:50:14 PM 32.2909 -64.3284 242° Southwest 483 556 33,000  Level FlightAware ADS-B
Tue 03:50:48 PM 32.2545 -64.4064 242° Southwest 484 557 33,000  Level FlightAware ADS-B
Tue 03:51:21 PM 32.2221 -64.4875 246° West 482 555 33,000  Level FlightAware ADS-B
Tue 03:52:03 PM 32.1745 -64.5818 239° Southwest 488 562 33,000  Level FlightAware ADS-B
Tue 03:53:18 PM 32.0910 -64.7539 241° Southwest 483 556 33,000  Level FlightAware ADS-B
Tue 03:53:56 PM 32.0483 -64.8441 241° Southwest 483 556 33,000  Level FlightAware ADS-B
Tue 03:54:38 PM 32.0036 -64.9382 241° Southwest 483 556 33,000  Level FlightAware ADS-B
Tue 03:55:14 PM 31.9641 -65.0212 241° Southwest 481 554 33,000  Level FlightAware ADS-B
Tue 03:55:50 PM 31.9292 -65.0994 241° Southwest 493 567 33,000  Level New York Center
Tue 03:56:50 PM 31.8725 -65.2228 242° Southwest 487 560 33,000  Level New York Center
Tue 03:57:50 PM 31.7981 -65.3714 240° Southwest 487 560 33,000  Level New York Center
Tue 03:58:50 PM 31.7353 -65.5069 241° Southwest 480 552 33,000  Level New York Center
Tue 03:59:50 PM 31.6761 -65.6300 241° Southwest 487 560 33,000  Level New York Center
Tue 04:00:50 PM 31.5992 -65.7781 239° Southwest 487 560 33,000  Level New York Center
Tue 04:01:50 PM 31.5419 -65.9053 242° Southwest 487 560 33,000  Level New York Center
Tue 04:02:50 PM 31.4686 -66.0503 239° Southwest 487 560 33,000  Level New York Center
Tue 04:03:50 PM 31.4072 -66.1869 242° Southwest 481 554 33,000  Level New York Center
Tue 04:04:50 PM 31.3472 -66.3067 240° Southwest 481 554 33,000  Level New York Center
Tue 04:05:50 PM 31.2692 -66.4511 238° Southwest 486 559 33,000  Level New York Center
Tue 04:06:50 PM 31.2056 -66.5900 242° Southwest 486 559 33,000  Level New York Center
Tue 04:07:50 PM 31.1428 -66.7067 238° Southwest 486 559 33,000  Level New York Center
Tue 04:08:50 PM 31.0686 -66.8550 240° Southwest 483 556 33,000  Level New York Center
Tue 04:09:50 PM 31.0067 -66.9956 243° Southwest 483 556 33,000  Level New York Center
Tue 04:10:50 PM 30.9394 -67.1119 236° Southwest 483 556 33,000  Level New York Center
Tue 04:11:50 PM 30.8647 -67.2597 240° Southwest 488 562 33,000  Level New York Center
Tue 04:12:50 PM 30.7958 -67.3928 239° Southwest 493 567 33,000  Level New York Center
Tue 04:27:34 PM 29.8000 -69.3000 238° Southwest 462 532 33,000  Level New York Oceanic (ODAPS)
Tue 04:37:12 PM 29.1667 -70.5000 237° Southwest 448 516 33,000  Level New York Oceanic (ODAPS)
Tue 04:41:13 PM 28.8833 -71.0000 237° Southwest 457 526 33,000  Level New York Oceanic (ODAPS)
Tue 04:46:46 PM 28.4833 -71.6500 237° Southwest 431 496 33,000  Level New York Oceanic (ODAPS)
Tue 04:49:05 PM 28.3167 -71.9167 237° Southwest 450 518 33,000  Level New York Oceanic (ODAPS)
Tue 04:56:23 PM 27.8167 -72.7833 237° Southwest 445 512 33,000  Level New York Oceanic (ODAPS)
Tue 05:05:58 PM 27.1667 -73.8833 236° Southwest 433 498 33,000  Level New York Oceanic (ODAPS)
Tue 05:07:41 PM 27.0394 -74.0853 236° Southwest 474 545 33,000  Level Miami Center
Tue 05:08:00 PM 26.9865 -74.1842 236° Southwest 445 512 33,000  Level FlightAware Transoceanic
Tue 05:08:41 PM 26.9664 -74.1919 232° Southwest 459 528 33,000  Level Miami Center
Tue 05:09:00 PM 26.9167 -74.3000 237° Southwest 445 512 33,000  Level FlightAware Transoceanic
Tue 05:09:41 PM 26.8975 -74.3053 236° Southwest 429 494 33,000  Level Miami Center
Tue 05:10:00 PM 26.8487 -74.4156 237° Southwest 445 512 33,000  Level FlightAware Transoceanic
Tue 05:10:41 PM 26.8389 -74.4253 241° Southwest 435 501 33,000  Level Miami Center
Tue 05:11:00 PM 26.7807 -74.5311 237° Southwest 445 512 33,000  Level FlightAware Transoceanic
Tue 05:11:41 PM 26.7719 -74.5361 236° Southwest 440 506 33,000  Level Miami Center
Tue 05:12:00 PM 26.7656 -74.5567 237° Southwest 433 498 33,000  Level FlightAware Transoceanic
Tue 05:12:41 PM 26.7067 -74.6467 237° Southwest 440 506 33,000  Level Miami Center
Tue 05:13:00 PM 26.6899 -74.6849 236° Southwest 433 498 33,000  Level FlightAware Transoceanic
Tue 05:13:41 PM 26.6458 -74.7642 240° Southwest 440 506 33,000  Level Miami Center
Tue 05:14:41 PM 26.5889 -74.8861 242° Southwest 440 506 33,000  Level Miami Center
Tue 05:15:41 PM 26.5236 -74.9986 237° Southwest 440 506 33,000  Level Miami Center
Tue 05:16:41 PM 26.4708 -75.1200 244° Southwest 440 506 33,000  Level Miami Center
Tue 05:17:41 PM 26.4075 -75.2347 238° Southwest 440 506 33,000  Level Miami Center
Tue 05:18:41 PM 26.3417 -75.3447 236° Southwest 440 506 33,000  Level Miami Center
Tue 05:19:41 PM 26.2844 -75.4636 242° Southwest 440 506 33,000  Level Miami Center
Tue 05:20:41 PM 26.2250 -75.5822 241° Southwest 445 512 33,000 -100 Level Miami Center
Tue 05:21:41 PM 26.1611 -75.6964 238° Southwest 445 512 32,800 -350 Descending Miami Center
Tue 05:22:41 PM 26.0931 -75.8036 235° Southwest 445 512 32,300 -400 Descending Miami Center
Tue 05:23:41 PM 26.0375 -75.9244 243° Southwest 440 506 32,000 -150 Descending Miami Center
Tue 05:24:41 PM 25.9756 -76.0403 239° Southwest 435 501 32,000  Level Miami Center
Tue 05:25:41 PM 25.9194 -76.1403 238° Southwest 435 501 32,000  Level Miami Center
Tue 05:26:41 PM 25.8594 -76.2583 241° Southwest 435 501 32,000  Level Miami Center
Tue 05:27:41 PM 25.7953 -76.3717 238° Southwest 440 506 32,000  Level Miami Center
Tue 05:28:41 PM 25.7328 -76.4872 239° Southwest 440 506 32,000  Level Miami Center
Tue 05:29:41 PM 25.6683 -76.6028 238° Southwest 440 506 32,000  Level Miami Center
Tue 05:30:41 PM 25.6078 -76.7158 239° Southwest 440 506 32,000  Level Miami Center
Tue 05:31:41 PM 25.5431 -76.8289 238° Southwest 440 506 32,000  Level Miami Center
Tue 05:32:41 PM 25.4825 -76.9461 240° Southwest 440 506 32,000  Level Miami Center
Tue 05:33:41 PM 25.4197 -77.0614 239° Southwest 440 506 32,000 -100 Level Miami Center
Tue 05:34:41 PM 25.3589 -77.1739 239° Southwest 440 506 31,800 -400 Descending Miami Center
Tue 05:35:41 PM 25.2939 -77.2886 238° Southwest 440 506 31,200 -400 Descending Miami Center
Tue 05:36:41 PM 25.2350 -77.4033 240° Southwest 440 506 31,000 -100 Descending Miami Center
Tue 05:37:41 PM 25.1675 -77.5317 240° Southwest 445 512 31,000  Level Miami Center
Tue 05:38:41 PM 25.1000 -77.6506 238° Southwest 450 518 31,000  Level Miami Center
Tue 05:39:41 PM 25.0347 -77.7603 237° Southwest 450 518 31,000  Level Miami Center
Tue 05:40:41 PM 24.9714 -77.8744 239° Southwest 445 512 31,000  Level Miami Center
Tue 05:41:41 PM 24.9097 -77.9883 239° Southwest 445 512 31,000  Level Miami Center
Tue 05:42:41 PM 24.8419 -78.1000 236° Southwest 445 512 31,000  Level Miami Center
Tue 05:43:41 PM 24.7783 -78.2139 238° Southwest 445 512 31,000  Level Miami Center
Tue 05:44:41 PM 24.7167 -78.3322 240° Southwest 450 518 31,000  Level Miami Center
Tue 05:45:41 PM 24.6528 -78.4411 237° Southwest 450 518 31,000  Level Miami Center
Tue 05:46:41 PM 24.5869 -78.5544 237° Southwest 445 512 31,000  Level Miami Center
Tue 05:47:41 PM 24.5269 -78.6703 240° Southwest 445 512 31,000  Level Miami Center
Tue 05:48:41 PM 24.4650 -78.7881 240° Southwest 450 518 31,000  Level Miami Center
Tue 05:49:41 PM 24.3967 -78.8964 235° Southwest 445 512 31,000  Level Miami Center
Tue 05:50:41 PM 24.3386 -79.0028 239° Southwest 429 494 31,000  Level Miami Center
Tue 05:51:41 PM 24.2744 -79.1019 235° Southwest 415 478 31,000  Level Miami Center
Tue 05:52:41 PM 24.2186 -79.2081 240° Southwest 415 478 31,000  Level Miami Center
Tue 05:53:41 PM 24.1564 -79.3069 235° Southwest 410 472 31,000  Level Miami Center
Tue 05:54:41 PM 24.0961 -79.4128 238° Southwest 410 472 31,000  Level Miami Center
Tue 05:55:41 PM 24.0400 -79.5142 239° Southwest 404 465 31,000  Level Miami Center
Tue 05:56:41 PM 23.9961 -79.6269 247° West 404 465 31,000  Level Miami Center
Tue 05:57:41 PM 23.9586 -79.7419 250° West 404 465 31,000  Level Miami Center
Tue 05:58:41 PM 23.9164 -79.8614 249° West 412 474 31,000  Level Miami Center
Tue 05:59:41 PM 23.8786 -79.9742 250° West 407 468 31,000  Level Miami Center
Tue 06:00:41 PM 23.8386 -80.0911 250° West 407 468 31,000  Level Miami Center
Tue 06:02:00 PM 23.7170 -80.2220 225° Southwest  Level FlightAware Approximate
Tue 06:09:00 PM 23.2211 -81.0586 239° Southwest  Level FlightAware Approximate
Tue 06:10:00 PM 23.1571 -81.1812 241° Southwest  Level FlightAware Approximate
Tue 06:11:00 PM 23.0931 -81.3038 240° Southwest  Level FlightAware Approximate
Tue 06:12:00 PM 23.0291 -81.4263 240° Southwest  Level FlightAware Approximate
Tue 06:13:00 PM 23.0124 -81.5633 264° West  Level FlightAware Approximate
Tue 06:14:00 PM 23.0000 -81.7034 270° West  Level FlightAware Approximate
Tue 06:15:00 PM 23.0000 -81.8442 270° West  Level FlightAware Approximate
Tue 06:16:00 PM 22.9953 -81.9848 264° West  Level FlightAware Approximate
Tue 06:17:00 PM 22.9833 -82.1249 270° West  Level FlightAware Approximate
Tue 06:18:00 PM 22.9833 -82.2657 270° West  Level FlightAware Approximate
Tue 06:19:00 PM 22.9667 -82.4000 260° West  Level FlightAware Approximate
Tue 06:20:00 PM 22.9891 -82.4091 260° West  Level Estimated
Tue 06:21:00 PM 22.9891 -82.4091 260° West  Level Estimated
Tue 06:22:00 PM 22.9891 -82.4091 260° West  Level Estimated
Tue 06:23:00 PM 22.9891 -82.4091 260° West  Level Estimated
Tue 06:24:00 PM 22.9891 -82.4091 260° West  Level Estimated
Tue 06:25:00 PM 22.9891 -82.4091 260° West  Level Estimated
Tue 06:26:00 PM 22.9891 -82.4091 260° West  Level Estimated
Tue 06:27:00 PM 22.9891 -82.4091 260° West  Level Estimated
Tue 06:28:00 PM 22.9891 -82.4091 260° West  Level Estimated
Tue 06:29:00 PM 22.9891 -82.4091 260° West  Level Estimated
Tue 06:30:00 PM 22.9891 -82.4091 260° West  Level Estimated
Tue 06:31:00 PM 22.9891 -82.4091 260° West  Level Estimated
Tue 06:32:00 PM 22.9891 -82.4091 260° West  Level Estimated
Tue 06:33:00 PM 22.9891 -82.4091 260° West  Level Estimated
Tue 06:34:00 PM 22.9891 -82.4091 260° West  Level Estimated
Tue 06:35:00 PM 22.9891 -82.4091 260° West  Level Estimated
Tue 06:36:00 PM 22.9891 -82.4091 260° West  Level Estimated
Tue 06:37:00 PM 22.9891 -82.4091 260° West  Level Estimated
Tue 06:38:00 PM 22.9891 -82.4091 260° West  Level Estimated
Tue 06:39:00 PM 22.9891 -82.4091 260° West  Level Estimated
Tue 06:40:00 PM 22.9891 -82.4091 260° West  Level Estimated
Tue 06:41:00 PM 22.9891 -82.4091 260° West  Level Estimated
Tue 06:42:00 PM 22.9891 -82.4091 260° West  Level Estimated
Tue 06:43:00 PM 22.9891 -82.4091 260° West  Level Estimated

Login

Don't have an account? Register now (free) for customized features, flight alerts, and more!